sensor_id;sensor_type;location;lat;lon;timestamp;P1;durP1;ratioP1;P2;durP2;ratioP2
45236;SDS011;30973;51.442;3.580;2022-10-31T00:00:59;5.72;;;4.80;;
45236;SDS011;30973;51.442;3.580;2022-10-31T00:03:26;6.88;;;4.72;;
45236;SDS011;30973;51.442;3.580;2022-10-31T00:05:54;8.93;;;4.95;;
45236;SDS011;30973;51.442;3.580;2022-10-31T00:08:21;9.35;;;4.50;;
45236;SDS011;30973;51.442;3.580;2022-10-31T00:10:48;7.97;;;5.18;;
45236;SDS011;30973;51.442;3.580;2022-10-31T00:13:16;9.20;;;4.85;;
45236;SDS011;30973;51.442;3.580;2022-10-31T00:15:43;7.28;;;4.55;;
45236;SDS011;30973;51.442;3.580;2022-10-31T00:18:10;6.32;;;4.18;;
45236;SDS011;30973;51.442;3.580;2022-10-31T00:20:38;7.20;;;4.50;;
45236;SDS011;30973;51.442;3.580;2022-10-31T00:23:05;7.47;;;4.40;;
45236;SDS011;30973;51.442;3.580;2022-10-31T00:25:34;7.28;;;4.18;;
45236;SDS011;30973;51.442;3.580;2022-10-31T00:28:03;5.45;;;4.68;;
45236;SDS011;30973;51.442;3.580;2022-10-31T00:30:30;6.63;;;4.43;;
45236;SDS011;30973;51.442;3.580;2022-10-31T00:32:58;5.35;;;4.28;;
45236;SDS011;30973;51.442;3.580;2022-10-31T00:35:26;5.60;;;3.95;;
45236;SDS011;30973;51.442;3.580;2022-10-31T00:37:53;7.60;;;4.80;;
45236;SDS011;30973;51.442;3.580;2022-10-31T00:40:21;7.60;;;4.35;;
45236;SDS011;30973;51.442;3.580;2022-10-31T00:42:48;6.03;;;4.53;;
45236;SDS011;30973;51.442;3.580;2022-10-31T00:45:15;7.43;;;4.50;;
45236;SDS011;30973;51.442;3.580;2022-10-31T00:47:43;9.70;;;5.07;;
45236;SDS011;30973;51.442;3.580;2022-10-31T00:50:10;6.53;;;4.80;;
45236;SDS011;30973;51.442;3.580;2022-10-31T00:52:38;7.45;;;4.90;;
45236;SDS011;30973;51.442;3.580;2022-10-31T00:55:05;6.32;;;4.78;;
45236;SDS011;30973;51.442;3.580;2022-10-31T00:57:32;6.18;;;4.65;;
45236;SDS011;30973;51.442;3.580;2022-10-31T01:00:01;7.00;;;4.88;;
45236;SDS011;30973;51.442;3.580;2022-10-31T01:02:29;8.48;;;4.80;;
45236;SDS011;30973;51.442;3.580;2022-10-31T01:04:56;6.07;;;4.43;;
45236;SDS011;30973;51.442;3.580;2022-10-31T01:07:23;7.68;;;4.93;;
45236;SDS011;30973;51.442;3.580;2022-10-31T01:09:51;7.72;;;4.60;;
45236;SDS011;30973;51.442;3.580;2022-10-31T01:12:19;5.90;;;4.75;;
45236;SDS011;30973;51.442;3.580;2022-10-31T01:14:46;6.85;;;5.20;;
45236;SDS011;30973;51.442;3.580;2022-10-31T01:17:16;7.57;;;4.70;;
45236;SDS011;30973;51.442;3.580;2022-10-31T01:19:45;6.80;;;4.68;;
45236;SDS011;30973;51.442;3.580;2022-10-31T01:22:13;7.90;;;4.82;;
45236;SDS011;30973;51.442;3.580;2022-10-31T01:24:40;6.38;;;4.72;;
45236;SDS011;30973;51.442;3.580;2022-10-31T01:27:07;7.28;;;4.80;;
45236;SDS011;30973;51.442;3.580;2022-10-31T01:29:34;5.93;;;4.28;;
45236;SDS011;30973;51.442;3.580;2022-10-31T01:32:02;6.53;;;4.72;;
45236;SDS011;30973;51.442;3.580;2022-10-31T01:34:29;5.43;;;4.75;;
45236;SDS011;30973;51.442;3.580;2022-10-31T01:36:56;6.70;;;4.80;;
45236;SDS011;30973;51.442;3.580;2022-10-31T01:39:24;7.35;;;5.05;;
45236;SDS011;30973;51.442;3.580;2022-10-31T01:41:52;8.95;;;4.85;;
45236;SDS011;30973;51.442;3.580;2022-10-31T01:46:47;8.02;;;4.95;;
45236;SDS011;30973;51.442;3.580;2022-10-31T01:49:23;8.45;;;5.05;;
45236;SDS011;30973;51.442;3.580;2022-10-31T01:51:53;8.23;;;4.85;;
45236;SDS011;30973;51.442;3.580;2022-10-31T01:54:22;6.65;;;4.72;;
45236;SDS011;30973;51.442;3.580;2022-10-31T01:56:51;8.10;;;4.60;;
45236;SDS011;30973;51.442;3.580;2022-10-31T01:59:20;6.43;;;4.72;;
45236;SDS011;30973;51.442;3.580;2022-10-31T02:01:49;8.90;;;5.10;;
45236;SDS011;30973;51.442;3.580;2022-10-31T02:04:18;8.07;;;4.40;;
45236;SDS011;30973;51.442;3.580;2022-10-31T02:06:47;8.02;;;4.60;;
45236;SDS011;30973;51.442;3.580;2022-10-31T02:09:17;6.82;;;4.32;;
45236;SDS011;30973;51.442;3.580;2022-10-31T02:11:51;8.23;;;5.32;;
45236;SDS011;30973;51.442;3.580;2022-10-31T02:14:19;8.40;;;5.13;;
45236;SDS011;30973;51.442;3.580;2022-10-31T02:16:50;8.63;;;5.07;;
45236;SDS011;30973;51.442;3.580;2022-10-31T02:19:19;6.63;;;5.13;;
45236;SDS011;30973;51.442;3.580;2022-10-31T02:21:52;8.07;;;4.93;;
45236;SDS011;30973;51.442;3.580;2022-10-31T02:26:54;7.60;;;4.53;;
45236;SDS011;30973;51.442;3.580;2022-10-31T02:34:34;9.60;;;4.72;;
45236;SDS011;30973;51.442;3.580;2022-10-31T02:37:13;6.70;;;4.50;;
45236;SDS011;30973;51.442;3.580;2022-10-31T02:44:54;6.75;;;5.00;;
45236;SDS011;30973;51.442;3.580;2022-10-31T02:47:24;9.35;;;5.13;;
45236;SDS011;30973;51.442;3.580;2022-10-31T02:50:07;9.00;;;5.15;;
45236;SDS011;30973;51.442;3.580;2022-10-31T02:52:37;8.38;;;5.10;;
45236;SDS011;30973;51.442;3.580;2022-10-31T02:57:59;8.15;;;5.20;;
45236;SDS011;30973;51.442;3.580;2022-10-31T03:00:30;6.43;;;4.57;;
45236;SDS011;30973;51.442;3.580;2022-10-31T03:13:10;6.10;;;4.75;;
45236;SDS011;30973;51.442;3.580;2022-10-31T03:15:40;7.70;;;4.93;;
45236;SDS011;30973;51.442;3.580;2022-10-31T03:18:27;7.68;;;5.15;;
45236;SDS011;30973;51.442;3.580;2022-10-31T03:20:56;7.88;;;5.53;;
45236;SDS011;30973;51.442;3.580;2022-10-31T03:23:24;6.45;;;5.20;;
45236;SDS011;30973;51.442;3.580;2022-10-31T03:25:52;10.10;;;5.53;;
45236;SDS011;30973;51.442;3.580;2022-10-31T03:28:27;9.55;;;4.95;;
45236;SDS011;30973;51.442;3.580;2022-10-31T03:30:55;7.50;;;5.38;;
45236;SDS011;30973;51.442;3.580;2022-10-31T03:33:28;7.45;;;5.10;;
45236;SDS011;30973;51.442;3.580;2022-10-31T03:35:57;9.48;;;5.20;;
45236;SDS011;30973;51.442;3.580;2022-10-31T03:38:27;7.30;;;5.07;;
45236;SDS011;30973;51.442;3.580;2022-10-31T03:40:56;6.13;;;4.90;;
45236;SDS011;30973;51.442;3.580;2022-10-31T03:43:30;8.05;;;5.50;;
45236;SDS011;30973;51.442;3.580;2022-10-31T03:45:59;9.50;;;6.30;;
45236;SDS011;30973;51.442;3.580;2022-10-31T03:48:26;7.13;;;5.50;;
45236;SDS011;30973;51.442;3.580;2022-10-31T03:50:59;8.20;;;5.20;;
45236;SDS011;30973;51.442;3.580;2022-10-31T03:53:32;7.28;;;5.25;;
45236;SDS011;30973;51.442;3.580;2022-10-31T03:56:04;10.43;;;5.82;;
45236;SDS011;30973;51.442;3.580;2022-10-31T03:58:34;8.40;;;5.05;;
45236;SDS011;30973;51.442;3.580;2022-10-31T04:01:05;10.40;;;6.93;;
45236;SDS011;30973;51.442;3.580;2022-10-31T04:03:35;7.93;;;5.28;;
45236;SDS011;30973;51.442;3.580;2022-10-31T04:06:08;9.38;;;5.40;;
45236;SDS011;30973;51.442;3.580;2022-10-31T04:08:39;9.20;;;5.68;;
45236;SDS011;30973;51.442;3.580;2022-10-31T04:11:08;7.28;;;5.30;;
45236;SDS011;30973;51.442;3.580;2022-10-31T04:13:40;10.77;;;5.80;;
45236;SDS011;30973;51.442;3.580;2022-10-31T04:16:13;7.40;;;5.78;;
45236;SDS011;30973;51.442;3.580;2022-10-31T04:18:43;8.57;;;5.53;;
45236;SDS011;30973;51.442;3.580;2022-10-31T04:21:10;8.90;;;5.55;;
45236;SDS011;30973;51.442;3.580;2022-10-31T04:23:38;7.97;;;5.72;;
45236;SDS011;30973;51.442;3.580;2022-10-31T04:26:23;11.27;;;5.63;;
45236;SDS011;30973;51.442;3.580;2022-10-31T04:28:51;8.18;;;5.22;;
45236;SDS011;30973;51.442;3.580;2022-10-31T04:31:18;8.80;;;5.80;;
45236;SDS011;30973;51.442;3.580;2022-10-31T04:33:48;10.18;;;5.25;;
45236;SDS011;30973;51.442;3.580;2022-10-31T04:36:16;7.72;;;5.38;;
45236;SDS011;30973;51.442;3.580;2022-10-31T04:38:44;10.73;;;5.10;;
45236;SDS011;30973;51.442;3.580;2022-10-31T04:41:25;7.05;;;5.80;;
45236;SDS011;30973;51.442;3.580;2022-10-31T04:44:00;8.70;;;5.40;;
45236;SDS011;30973;51.442;3.580;2022-10-31T04:46:27;8.93;;;5.50;;
45236;SDS011;30973;51.442;3.580;2022-10-31T04:48:56;8.23;;;5.60;;
45236;SDS011;30973;51.442;3.580;2022-10-31T04:51:23;8.10;;;5.32;;
45236;SDS011;30973;51.442;3.580;2022-10-31T04:53:51;10.07;;;5.68;;
45236;SDS011;30973;51.442;3.580;2022-10-31T04:56:31;9.48;;;5.25;;
45236;SDS011;30973;51.442;3.580;2022-10-31T04:59:02;7.32;;;5.05;;
45236;SDS011;30973;51.442;3.580;2022-10-31T05:01:42;7.72;;;5.28;;
45236;SDS011;30973;51.442;3.580;2022-10-31T05:04:10;8.65;;;5.10;;
45236;SDS011;30973;51.442;3.580;2022-10-31T05:06:37;6.70;;;5.07;;
45236;SDS011;30973;51.442;3.580;2022-10-31T05:09:05;7.45;;;4.97;;
45236;SDS011;30973;51.442;3.580;2022-10-31T05:11:33;7.00;;;5.35;;
45236;SDS011;30973;51.442;3.580;2022-10-31T05:14:15;8.45;;;5.13;;
45236;SDS011;30973;51.442;3.580;2022-10-31T05:17:02;7.10;;;5.10;;
45236;SDS011;30973;51.442;3.580;2022-10-31T05:19:48;10.30;;;5.38;;
45236;SDS011;30973;51.442;3.580;2022-10-31T05:22:34;7.70;;;5.05;;
45236;SDS011;30973;51.442;3.580;2022-10-31T05:25:02;7.70;;;5.60;;
45236;SDS011;30973;51.442;3.580;2022-10-31T05:27:30;7.43;;;4.93;;
45236;SDS011;30973;51.442;3.580;2022-10-31T05:29:57;9.27;;;5.05;;
45236;SDS011;30973;51.442;3.580;2022-10-31T05:32:25;7.72;;;5.35;;
45236;SDS011;30973;51.442;3.580;2022-10-31T05:35:14;7.75;;;5.32;;
45236;SDS011;30973;51.442;3.580;2022-10-31T05:38:00;8.70;;;5.80;;
45236;SDS011;30973;51.442;3.580;2022-10-31T05:40:28;9.52;;;5.35;;
45236;SDS011;30973;51.442;3.580;2022-10-31T05:42:56;10.77;;;5.50;;
45236;SDS011;30973;51.442;3.580;2022-10-31T05:45:25;8.68;;;5.65;;
45236;SDS011;30973;51.442;3.580;2022-10-31T05:47:59;7.78;;;5.85;;
45236;SDS011;30973;51.442;3.580;2022-10-31T05:51:05;8.35;;;5.47;;
45236;SDS011;30973;51.442;3.580;2022-10-31T05:53:33;7.90;;;5.60;;
45236;SDS011;30973;51.442;3.580;2022-10-31T05:56:00;7.65;;;5.80;;
45236;SDS011;30973;51.442;3.580;2022-10-31T05:58:28;10.98;;;6.00;;
45236;SDS011;30973;51.442;3.580;2022-10-31T06:01:02;9.52;;;6.07;;
45236;SDS011;30973;51.442;3.580;2022-10-31T06:03:31;8.98;;;6.18;;
45236;SDS011;30973;51.442;3.580;2022-10-31T06:06:01;10.98;;;6.25;;
45236;SDS011;30973;51.442;3.580;2022-10-31T06:08:34;9.88;;;5.72;;
45236;SDS011;30973;51.442;3.580;2022-10-31T06:11:05;11.13;;;6.30;;
45236;SDS011;30973;51.442;3.580;2022-10-31T06:13:52;9.35;;;5.97;;
45236;SDS011;30973;51.442;3.580;2022-10-31T06:16:30;8.63;;;6.43;;
45236;SDS011;30973;51.442;3.580;2022-10-31T06:19:08;12.32;;;6.78;;
45236;SDS011;30973;51.442;3.580;2022-10-31T06:21:35;12.20;;;6.97;;
45236;SDS011;30973;51.442;3.580;2022-10-31T06:24:02;11.18;;;7.05;;
45236;SDS011;30973;51.442;3.580;2022-10-31T06:27:02;12.60;;;7.60;;
45236;SDS011;30973;51.442;3.580;2022-10-31T06:29:32;12.23;;;7.10;;
45236;SDS011;30973;51.442;3.580;2022-10-31T06:32:13;10.13;;;7.45;;
45236;SDS011;30973;51.442;3.580;2022-10-31T06:34:45;12.60;;;8.13;;
45236;SDS011;30973;51.442;3.580;2022-10-31T06:37:15;10.60;;;7.80;;
45236;SDS011;30973;51.442;3.580;2022-10-31T06:39:45;13.57;;;7.88;;
45236;SDS011;30973;51.442;3.580;2022-10-31T06:42:15;15.23;;;8.40;;
45236;SDS011;30973;51.442;3.580;2022-10-31T06:44:42;11.48;;;8.32;;
45236;SDS011;30973;51.442;3.580;2022-10-31T06:47:29;14.85;;;8.20;;
45236;SDS011;30973;51.442;3.580;2022-10-31T06:50:09;13.20;;;8.00;;
45236;SDS011;30973;51.442;3.580;2022-10-31T06:52:36;13.10;;;8.45;;
45236;SDS011;30973;51.442;3.580;2022-10-31T06:55:04;15.00;;;8.45;;
45236;SDS011;30973;51.442;3.580;2022-10-31T06:57:32;12.80;;;8.48;;
45236;SDS011;30973;51.442;3.580;2022-10-31T07:00:00;11.68;;;9.00;;
45236;SDS011;30973;51.442;3.580;2022-10-31T07:02:37;14.55;;;8.35;;
45236;SDS011;30973;51.442;3.580;2022-10-31T07:05:05;13.70;;;8.65;;
45236;SDS011;30973;51.442;3.580;2022-10-31T07:07:32;13.45;;;9.00;;
45236;SDS011;30973;51.442;3.580;2022-10-31T07:09:59;12.90;;;8.82;;
45236;SDS011;30973;51.442;3.580;2022-10-31T07:12:43;11.38;;;8.93;;
45236;SDS011;30973;51.442;3.580;2022-10-31T07:15:10;13.10;;;8.98;;
45236;SDS011;30973;51.442;3.580;2022-10-31T07:17:38;12.50;;;9.05;;
45236;SDS011;30973;51.442;3.580;2022-10-31T07:20:07;16.13;;;9.80;;
45236;SDS011;30973;51.442;3.580;2022-10-31T07:22:35;10.13;;;8.57;;
45236;SDS011;30973;51.442;3.580;2022-10-31T07:25:05;13.80;;;9.35;;
45236;SDS011;30973;51.442;3.580;2022-10-31T07:27:51;13.18;;;8.32;;
45236;SDS011;30973;51.442;3.580;2022-10-31T07:30:20;12.90;;;9.15;;
45236;SDS011;30973;51.442;3.580;2022-10-31T07:32:50;12.57;;;7.80;;
45236;SDS011;30973;51.442;3.580;2022-10-31T07:35:20;14.38;;;8.57;;
45236;SDS011;30973;51.442;3.580;2022-10-31T07:37:54;13.80;;;8.80;;
45236;SDS011;30973;51.442;3.580;2022-10-31T07:40:22;16.38;;;9.43;;
45236;SDS011;30973;51.442;3.580;2022-10-31T07:42:52;14.13;;;9.13;;
45236;SDS011;30973;51.442;3.580;2022-10-31T07:45:38;11.63;;;8.85;;
45236;SDS011;30973;51.442;3.580;2022-10-31T07:48:24;13.48;;;9.18;;
45236;SDS011;30973;51.442;3.580;2022-10-31T07:51:10;12.25;;;10.40;;
45236;SDS011;30973;51.442;3.580;2022-10-31T07:54:06;12.95;;;9.68;;
45236;SDS011;30973;51.442;3.580;2022-10-31T07:56:33;11.43;;;9.07;;
45236;SDS011;30973;51.442;3.580;2022-10-31T07:59:01;14.93;;;10.98;;
45236;SDS011;30973;51.442;3.580;2022-10-31T08:01:28;13.82;;;10.35;;
45236;SDS011;30973;51.442;3.580;2022-10-31T08:04:31;16.25;;;12.07;;
45236;SDS011;30973;51.442;3.580;2022-10-31T08:07:17;22.67;;;14.18;;
45236;SDS011;30973;51.442;3.580;2022-10-31T08:09:52;18.90;;;14.73;;
45236;SDS011;30973;51.442;3.580;2022-10-31T08:12:23;19.77;;;15.75;;
45236;SDS011;30973;51.442;3.580;2022-10-31T08:14:52;23.48;;;18.10;;
45236;SDS011;30973;51.442;3.580;2022-10-31T08:17:19;22.73;;;16.40;;
45236;SDS011;30973;51.442;3.580;2022-10-31T08:19:52;23.17;;;16.83;;
45236;SDS011;30973;51.442;3.580;2022-10-31T08:22:25;20.25;;;14.57;;
45236;SDS011;30973;51.442;3.580;2022-10-31T08:24:52;19.88;;;13.70;;
45236;SDS011;30973;51.442;3.580;2022-10-31T08:27:20;15.60;;;11.68;;
45236;SDS011;30973;51.442;3.580;2022-10-31T08:29:48;17.80;;;12.38;;
45236;SDS011;30973;51.442;3.580;2022-10-31T08:32:15;16.27;;;12.18;;
45236;SDS011;30973;51.442;3.580;2022-10-31T08:35:01;14.60;;;11.60;;
45236;SDS011;30973;51.442;3.580;2022-10-31T08:37:34;15.73;;;10.82;;
45236;SDS011;30973;51.442;3.580;2022-10-31T08:40:03;16.23;;;10.05;;
45236;SDS011;30973;51.442;3.580;2022-10-31T08:42:33;14.85;;;9.50;;
45236;SDS011;30973;51.442;3.580;2022-10-31T08:45:01;16.55;;;10.32;;
45236;SDS011;30973;51.442;3.580;2022-10-31T08:47:30;17.58;;;10.15;;
45236;SDS011;30973;51.442;3.580;2022-10-31T08:49:58;18.85;;;12.02;;
45236;SDS011;30973;51.442;3.580;2022-10-31T08:52:25;19.52;;;11.50;;
45236;SDS011;30973;51.442;3.580;2022-10-31T08:55:13;11.48;;;7.70;;
45236;SDS011;30973;51.442;3.580;2022-10-31T08:58:01;12.68;;;7.50;;
45236;SDS011;30973;51.442;3.580;2022-10-31T09:00:37;12.02;;;8.07;;
45236;SDS011;30973;51.442;3.580;2022-10-31T09:05:41;14.43;;;8.02;;
45236;SDS011;30973;51.442;3.580;2022-10-31T09:08:11;14.25;;;9.40;;
45236;SDS011;30973;51.442;3.580;2022-10-31T09:10:44;14.23;;;9.95;;
45236;SDS011;30973;51.442;3.580;2022-10-31T09:13:16;17.73;;;10.95;;
45236;SDS011;30973;51.442;3.580;2022-10-31T09:16:02;16.25;;;10.88;;
45236;SDS011;30973;51.442;3.580;2022-10-31T09:18:30;18.75;;;11.80;;
45236;SDS011;30973;51.442;3.580;2022-10-31T09:20:58;14.77;;;9.75;;
45236;SDS011;30973;51.442;3.580;2022-10-31T09:23:29;13.73;;;9.70;;
45236;SDS011;30973;51.442;3.580;2022-10-31T09:26:00;14.45;;;9.82;;
45236;SDS011;30973;51.442;3.580;2022-10-31T09:28:34;14.82;;;9.63;;
45236;SDS011;30973;51.442;3.580;2022-10-31T09:31:08;18.50;;;10.13;;
45236;SDS011;30973;51.442;3.580;2022-10-31T09:33:54;14.52;;;9.40;;
45236;SDS011;30973;51.442;3.580;2022-10-31T09:36:50;16.80;;;9.88;;
45236;SDS011;30973;51.442;3.580;2022-10-31T09:39:23;16.67;;;11.32;;
45236;SDS011;30973;51.442;3.580;2022-10-31T09:50:42;13.45;;;10.48;;
45236;SDS011;30973;51.442;3.580;2022-10-31T09:53:34;12.82;;;9.43;;
45236;SDS011;30973;51.442;3.580;2022-10-31T09:56:05;15.05;;;9.95;;
45236;SDS011;30973;51.442;3.580;2022-10-31T09:58:34;18.65;;;9.38;;
45236;SDS011;30973;51.442;3.580;2022-10-31T10:01:04;16.30;;;10.48;;
45236;SDS011;30973;51.442;3.580;2022-10-31T10:03:36;14.15;;;9.48;;
45236;SDS011;30973;51.442;3.580;2022-10-31T10:06:27;15.43;;;9.18;;
45236;SDS011;30973;51.442;3.580;2022-10-31T10:09:30;13.88;;;9.85;;
45236;SDS011;30973;51.442;3.580;2022-10-31T10:14:59;16.52;;;10.52;;
45236;SDS011;30973;51.442;3.580;2022-10-31T10:17:43;13.43;;;9.52;;
45236;SDS011;30973;51.442;3.580;2022-10-31T10:22:46;15.10;;;8.20;;
45236;SDS011;30973;51.442;3.580;2022-10-31T10:25:22;11.60;;;8.48;;
45236;SDS011;30973;51.442;3.580;2022-10-31T10:30:50;13.63;;;10.23;;
45236;SDS011;30973;51.442;3.580;2022-10-31T10:36:10;15.20;;;10.20;;
45236;SDS011;30973;51.442;3.580;2022-10-31T10:38:45;15.63;;;10.10;;
45236;SDS011;30973;51.442;3.580;2022-10-31T10:41:16;13.65;;;10.00;;
45236;SDS011;30973;51.442;3.580;2022-10-31T10:43:44;16.23;;;9.90;;
45236;SDS011;30973;51.442;3.580;2022-10-31T10:46:21;16.80;;;9.85;;
45236;SDS011;30973;51.442;3.580;2022-10-31T10:51:57;14.68;;;10.75;;
45236;SDS011;30973;51.442;3.580;2022-10-31T10:55:03;13.07;;;9.10;;
45236;SDS011;30973;51.442;3.580;2022-10-31T11:00:17;11.85;;;8.55;;
45236;SDS011;30973;51.442;3.580;2022-10-31T11:02:45;13.15;;;9.00;;
45236;SDS011;30973;51.442;3.580;2022-10-31T11:05:18;12.45;;;9.27;;
45236;SDS011;30973;51.442;3.580;2022-10-31T11:07:47;13.45;;;9.30;;
45236;SDS011;30973;51.442;3.580;2022-10-31T11:10:15;14.68;;;8.95;;
45236;SDS011;30973;51.442;3.580;2022-10-31T11:13:03;13.95;;;10.35;;
45236;SDS011;30973;51.442;3.580;2022-10-31T11:17:58;12.40;;;9.00;;
45236;SDS011;30973;51.442;3.580;2022-10-31T11:20:35;15.85;;;8.85;;
45236;SDS011;30973;51.442;3.580;2022-10-31T11:23:16;14.07;;;9.20;;
45236;SDS011;30973;51.442;3.580;2022-10-31T11:25:48;15.98;;;9.85;;
45236;SDS011;30973;51.442;3.580;2022-10-31T11:28:16;14.32;;;9.55;;
45236;SDS011;30973;51.442;3.580;2022-10-31T11:30:45;17.42;;;10.48;;
45236;SDS011;30973;51.442;3.580;2022-10-31T11:33:24;12.82;;;8.50;;
45236;SDS011;30973;51.442;3.580;2022-10-31T11:35:53;15.13;;;9.75;;
45236;SDS011;30973;51.442;3.580;2022-10-31T11:38:24;13.82;;;8.77;;
45236;SDS011;30973;51.442;3.580;2022-10-31T11:40:54;12.65;;;8.88;;
45236;SDS011;30973;51.442;3.580;2022-10-31T11:43:23;13.63;;;8.75;;
45236;SDS011;30973;51.442;3.580;2022-10-31T11:45:50;12.25;;;8.68;;
45236;SDS011;30973;51.442;3.580;2022-10-31T11:48:19;12.85;;;8.68;;
45236;SDS011;30973;51.442;3.580;2022-10-31T11:50:56;11.60;;;8.55;;
45236;SDS011;30973;51.442;3.580;2022-10-31T11:53:26;13.35;;;8.30;;
45236;SDS011;30973;51.442;3.580;2022-10-31T11:56:05;12.85;;;7.93;;
45236;SDS011;30973;51.442;3.580;2022-10-31T11:58:33;12.55;;;8.38;;
45236;SDS011;30973;51.442;3.580;2022-10-31T12:01:00;13.10;;;7.72;;
45236;SDS011;30973;51.442;3.580;2022-10-31T12:03:48;14.15;;;7.85;;
45236;SDS011;30973;51.442;3.580;2022-10-31T12:06:23;12.90;;;7.20;;
45236;SDS011;30973;51.442;3.580;2022-10-31T12:08:51;11.40;;;6.80;;
45236;SDS011;30973;51.442;3.580;2022-10-31T12:14:08;17.48;;;8.00;;
45236;SDS011;30973;51.442;3.580;2022-10-31T12:19:15;12.95;;;7.72;;
45236;SDS011;30973;51.442;3.580;2022-10-31T12:22:02;12.27;;;7.80;;
45236;SDS011;30973;51.442;3.580;2022-10-31T12:24:35;12.13;;;7.60;;
45236;SDS011;30973;51.442;3.580;2022-10-31T12:27:12;11.40;;;7.80;;
45236;SDS011;30973;51.442;3.580;2022-10-31T12:32:38;14.60;;;8.30;;
45236;SDS011;30973;51.442;3.580;2022-10-31T12:42:58;13.48;;;9.02;;
45236;SDS011;30973;51.442;3.580;2022-10-31T12:53:16;15.07;;;9.60;;
45236;SDS011;30973;51.442;3.580;2022-10-31T12:58:54;12.25;;;9.63;;
45236;SDS011;30973;51.442;3.580;2022-10-31T13:06:48;15.40;;;9.93;;
45236;SDS011;30973;51.442;3.580;2022-10-31T13:09:17;17.27;;;10.45;;
45236;SDS011;30973;51.442;3.580;2022-10-31T13:11:51;14.85;;;9.73;;
45236;SDS011;30973;51.442;3.580;2022-10-31T13:14:25;21.38;;;10.70;;
45236;SDS011;30973;51.442;3.580;2022-10-31T13:16:53;16.83;;;10.75;;
45236;SDS011;30973;51.442;3.580;2022-10-31T13:19:25;14.90;;;10.43;;
45236;SDS011;30973;51.442;3.580;2022-10-31T13:21:57;18.30;;;10.90;;
45236;SDS011;30973;51.442;3.580;2022-10-31T13:24:30;15.80;;;10.55;;
45236;SDS011;30973;51.442;3.580;2022-10-31T13:27:01;17.60;;;11.43;;
45236;SDS011;30973;51.442;3.580;2022-10-31T13:29:33;18.48;;;11.50;;
45236;SDS011;30973;51.442;3.580;2022-10-31T13:32:06;20.08;;;11.70;;
45236;SDS011;30973;51.442;3.580;2022-10-31T13:34:42;19.67;;;11.30;;
45236;SDS011;30973;51.442;3.580;2022-10-31T13:45:22;22.85;;;12.07;;
45236;SDS011;30973;51.442;3.580;2022-10-31T13:50:32;17.52;;;12.52;;
45236;SDS011;30973;51.442;3.580;2022-10-31T13:56:04;22.10;;;14.98;;
45236;SDS011;30973;51.442;3.580;2022-10-31T13:58:32;25.65;;;15.50;;
45236;SDS011;30973;51.442;3.580;2022-10-31T14:03:34;30.77;;;18.33;;
45236;SDS011;30973;51.442;3.580;2022-10-31T14:06:23;30.17;;;18.38;;
45236;SDS011;30973;51.442;3.580;2022-10-31T14:11:55;27.60;;;19.15;;
45236;SDS011;30973;51.442;3.580;2022-10-31T14:14:26;28.45;;;18.10;;
45236;SDS011;30973;51.442;3.580;2022-10-31T14:16:56;24.83;;;17.38;;
45236;SDS011;30973;51.442;3.580;2022-10-31T14:19:24;26.05;;;17.55;;
45236;SDS011;30973;51.442;3.580;2022-10-31T14:21:53;24.77;;;17.58;;
45236;SDS011;30973;51.442;3.580;2022-10-31T14:29:23;28.45;;;17.13;;
45236;SDS011;30973;51.442;3.580;2022-10-31T14:41:59;26.25;;;17.40;;
45236;SDS011;30973;51.442;3.580;2022-10-31T14:44:37;23.73;;;16.63;;
45236;SDS011;30973;51.442;3.580;2022-10-31T14:49:41;27.20;;;17.90;;
45236;SDS011;30973;51.442;3.580;2022-10-31T14:52:25;28.25;;;17.88;;
45236;SDS011;30973;51.442;3.580;2022-10-31T14:54:56;29.17;;;18.23;;
45236;SDS011;30973;51.442;3.580;2022-10-31T14:57:31;23.60;;;17.48;;
45236;SDS011;30973;51.442;3.580;2022-10-31T15:00:16;31.73;;;18.05;;
45236;SDS011;30973;51.442;3.580;2022-10-31T15:05:30;29.17;;;18.65;;
45236;SDS011;30973;51.442;3.580;2022-10-31T15:07:59;27.42;;;18.00;;
45236;SDS011;30973;51.442;3.580;2022-10-31T15:10:27;31.50;;;17.65;;
45236;SDS011;30973;51.442;3.580;2022-10-31T15:12:56;27.83;;;18.55;;
45236;SDS011;30973;51.442;3.580;2022-10-31T15:15:35;31.33;;;18.33;;
45236;SDS011;30973;51.442;3.580;2022-10-31T15:18:06;26.85;;;18.42;;
45236;SDS011;30973;51.442;3.580;2022-10-31T15:20:38;30.65;;;19.58;;
45236;SDS011;30973;51.442;3.580;2022-10-31T15:23:17;31.95;;;18.23;;
45236;SDS011;30973;51.442;3.580;2022-10-31T15:25:45;26.73;;;18.13;;
45236;SDS011;30973;51.442;3.580;2022-10-31T15:28:16;27.45;;;18.27;;
45236;SDS011;30973;51.442;3.580;2022-10-31T15:30:52;29.35;;;18.52;;
45236;SDS011;30973;51.442;3.580;2022-10-31T15:35:56;27.65;;;18.30;;
45236;SDS011;30973;51.442;3.580;2022-10-31T15:38:27;27.00;;;17.83;;
45236;SDS011;30973;51.442;3.580;2022-10-31T15:43:22;29.73;;;18.88;;
45236;SDS011;30973;51.442;3.580;2022-10-31T15:45:59;30.85;;;18.85;;
45236;SDS011;30973;51.442;3.580;2022-10-31T15:48:27;27.67;;;18.30;;
45236;SDS011;30973;51.442;3.580;2022-10-31T15:50:58;35.13;;;20.52;;
45236;SDS011;30973;51.442;3.580;2022-10-31T15:53:27;31.60;;;19.15;;
45236;SDS011;30973;51.442;3.580;2022-10-31T15:55:57;29.67;;;19.90;;
45236;SDS011;30973;51.442;3.580;2022-10-31T15:58:25;29.75;;;19.30;;
45236;SDS011;30973;51.442;3.580;2022-10-31T16:01:00;31.90;;;19.65;;
45236;SDS011;30973;51.442;3.580;2022-10-31T16:03:31;29.08;;;19.40;;
45236;SDS011;30973;51.442;3.580;2022-10-31T16:06:03;31.88;;;21.42;;
45236;SDS011;30973;51.442;3.580;2022-10-31T16:10:59;32.60;;;22.17;;
45236;SDS011;30973;51.442;3.580;2022-10-31T16:13:31;33.40;;;21.73;;
45236;SDS011;30973;51.442;3.580;2022-10-31T16:16:01;35.17;;;20.92;;
45236;SDS011;30973;51.442;3.580;2022-10-31T16:18:49;33.80;;;21.13;;
45236;SDS011;30973;51.442;3.580;2022-10-31T16:21:22;31.95;;;20.42;;
45236;SDS011;30973;51.442;3.580;2022-10-31T16:23:52;32.17;;;19.93;;
45236;SDS011;30973;51.442;3.580;2022-10-31T16:26:23;31.63;;;20.65;;
45236;SDS011;30973;51.442;3.580;2022-10-31T16:28:52;34.45;;;19.98;;
45236;SDS011;30973;51.442;3.580;2022-10-31T16:31:35;32.88;;;20.65;;
45236;SDS011;30973;51.442;3.580;2022-10-31T16:34:04;32.97;;;19.67;;
45236;SDS011;30973;51.442;3.580;2022-10-31T16:36:32;29.48;;;20.10;;
45236;SDS011;30973;51.442;3.580;2022-10-31T16:39:04;33.50;;;20.42;;
45236;SDS011;30973;51.442;3.580;2022-10-31T16:41:33;33.80;;;20.73;;
45236;SDS011;30973;51.442;3.580;2022-10-31T16:44:02;32.42;;;19.67;;
45236;SDS011;30973;51.442;3.580;2022-10-31T16:46:30;31.48;;;20.52;;
45236;SDS011;30973;51.442;3.580;2022-10-31T16:48:58;36.20;;;21.02;;
45236;SDS011;30973;51.442;3.580;2022-10-31T16:51:25;34.50;;;22.55;;
45236;SDS011;30973;51.442;3.580;2022-10-31T16:53:52;35.60;;;21.17;;
45236;SDS011;30973;51.442;3.580;2022-10-31T16:56:22;31.60;;;19.02;;
45236;SDS011;30973;51.442;3.580;2022-10-31T16:58:50;30.77;;;19.25;;
45236;SDS011;30973;51.442;3.580;2022-10-31T17:01:18;30.60;;;18.55;;
45236;SDS011;30973;51.442;3.580;2022-10-31T17:03:45;27.30;;;18.05;;
45236;SDS011;30973;51.442;3.580;2022-10-31T17:06:13;31.55;;;18.25;;
45236;SDS011;30973;51.442;3.580;2022-10-31T17:08:40;32.40;;;20.35;;
45236;SDS011;30973;51.442;3.580;2022-10-31T17:11:08;29.52;;;18.30;;
45236;SDS011;30973;51.442;3.580;2022-10-31T17:13:40;29.27;;;17.38;;
45236;SDS011;30973;51.442;3.580;2022-10-31T17:16:08;29.42;;;17.42;;
45236;SDS011;30973;51.442;3.580;2022-10-31T17:18:35;26.35;;;16.45;;
45236;SDS011;30973;51.442;3.580;2022-10-31T17:21:03;24.75;;;15.65;;
45236;SDS011;30973;51.442;3.580;2022-10-31T17:23:31;28.00;;;16.45;;